sensor_id;sensor_type;location;lat;lon;timestamp;temperature;humidity
2973;DHT22;1496;51.404;7.232;2023-07-20T00:00:50;16.20;1.00
2973;DHT22;1496;51.404;7.232;2023-07-20T00:03:19;16.20;1.00
2973;DHT22;1496;51.404;7.232;2023-07-20T00:05:48;16.20;1.00
2973;DHT22;1496;51.404;7.232;2023-07-20T00:08:15;16.30;1.00
2973;DHT22;1496;51.404;7.232;2023-07-20T00:10:41;16.30;1.00
2973;DHT22;1496;51.404;7.232;2023-07-20T00:13:07;16.30;1.00
2973;DHT22;1496;51.404;7.232;2023-07-20T00:15:32;16.30;1.00
2973;DHT22;1496;51.404;7.232;2023-07-20T00:17:58;16.20;1.00
2973;DHT22;1496;51.404;7.232;2023-07-20T00:20:24;16.20;1.00
2973;DHT22;1496;51.404;7.232;2023-07-20T00:22:51;16.00;1.00
2973;DHT22;1496;51.404;7.232;2023-07-20T00:25:17;16.00;1.00
2973;DHT22;1496;51.404;7.232;2023-07-20T00:27:43;16.10;1.00
2973;DHT22;1496;51.404;7.232;2023-07-20T00:30:09;16.00;1.00
2973;DHT22;1496;51.404;7.232;2023-07-20T00:32:35;16.00;1.00
2973;DHT22;1496;51.404;7.232;2023-07-20T00:35:01;15.90;1.00
2973;DHT22;1496;51.404;7.232;2023-07-20T00:37:28;15.90;1.00
2973;DHT22;1496;51.404;7.232;2023-07-20T00:39:54;16.00;1.00
2973;DHT22;1496;51.404;7.232;2023-07-20T00:42:20;16.10;1.00
2973;DHT22;1496;51.404;7.232;2023-07-20T00:44:46;16.20;1.00
2973;DHT22;1496;51.404;7.232;2023-07-20T00:47:12;16.10;1.00
2973;DHT22;1496;51.404;7.232;2023-07-20T00:49:38;16.20;1.00
2973;DHT22;1496;51.404;7.232;2023-07-20T00:52:06;16.20;1.00
2973;DHT22;1496;51.404;7.232;2023-07-20T00:54:32;16.10;1.00
2973;DHT22;1496;51.404;7.232;2023-07-20T00:56:58;16.20;1.00
2973;DHT22;1496;51.404;7.232;2023-07-20T00:59:25;16.10;1.00
2973;DHT22;1496;51.404;7.232;2023-07-20T01:01:51;16.00;1.00
2973;DHT22;1496;51.404;7.232;2023-07-20T01:04:16;16.00;1.00
2973;DHT22;1496;51.404;7.232;2023-07-20T01:06:58;15.90;1.00
2973;DHT22;1496;51.404;7.232;2023-07-20T01:09:34;15.90;1.00
2973;DHT22;1496;51.404;7.232;2023-07-20T01:12:36;15.90;1.00
2973;DHT22;1496;51.404;7.232;2023-07-20T01:15:06;15.90;1.00
2973;DHT22;1496;51.404;7.232;2023-07-20T01:17:33;15.90;1.00
2973;DHT22;1496;51.404;7.232;2023-07-20T01:19:59;15.80;1.00
2973;DHT22;1496;51.404;7.232;2023-07-20T01:23:10;15.80;1.00
2973;DHT22;1496;51.404;7.232;2023-07-20T01:31:36;15.70;1.00
2973;DHT22;1496;51.404;7.232;2023-07-20T01:34:03;15.80;1.00
2973;DHT22;1496;51.404;7.232;2023-07-20T01:36:34;15.80;1.00
2973;DHT22;1496;51.404;7.232;2023-07-20T01:39:00;15.80;1.00
2973;DHT22;1496;51.404;7.232;2023-07-20T01:41:27;15.80;1.00
2973;DHT22;1496;51.404;7.232;2023-07-20T01:43:53;15.80;1.00
2973;DHT22;1496;51.404;7.232;2023-07-20T01:46:22;15.80;1.00
2973;DHT22;1496;51.404;7.232;2023-07-20T01:48:48;15.70;1.00
2973;DHT22;1496;51.404;7.232;2023-07-20T01:51:14;15.70;1.00
2973;DHT22;1496;51.404;7.232;2023-07-20T01:53:40;15.70;1.00
2973;DHT22;1496;51.404;7.232;2023-07-20T01:56:06;15.60;1.00
2973;DHT22;1496;51.404;7.232;2023-07-20T01:58:31;15.60;1.00
2973;DHT22;1496;51.404;7.232;2023-07-20T02:00:57;15.60;1.00
2973;DHT22;1496;51.404;7.232;2023-07-20T02:03:23;15.70;1.00
2973;DHT22;1496;51.404;7.232;2023-07-20T02:05:51;15.60;1.00
2973;DHT22;1496;51.404;7.232;2023-07-20T02:08:16;15.50;1.00
2973;DHT22;1496;51.404;7.232;2023-07-20T02:10:46;15.50;1.00
2973;DHT22;1496;51.404;7.232;2023-07-20T02:13:12;15.60;1.00
2973;DHT22;1496;51.404;7.232;2023-07-20T02:15:38;15.60;1.00
2973;DHT22;1496;51.404;7.232;2023-07-20T02:18:04;15.60;1.00
2973;DHT22;1496;51.404;7.232;2023-07-20T02:20:34;15.60;1.00
2973;DHT22;1496;51.404;7.232;2023-07-20T02:22:59;15.50;14.00
2973;DHT22;1496;51.404;7.232;2023-07-20T02:25:25;15.60;80.70
2973;DHT22;1496;51.404;7.232;2023-07-20T02:27:50;15.50;94.90
2973;DHT22;1496;51.404;7.232;2023-07-20T02:30:16;15.50;99.90
2973;DHT22;1496;51.404;7.232;2023-07-20T02:32:43;15.60;99.90
2973;DHT22;1496;51.404;7.232;2023-07-20T02:35:11;15.60;99.90
2973;DHT22;1496;51.404;7.232;2023-07-20T02:37:38;15.60;99.90
2973;DHT22;1496;51.404;7.232;2023-07-20T02:40:05;15.70;99.90
2973;DHT22;1496;51.404;7.232;2023-07-20T02:42:32;15.60;99.90
2973;DHT22;1496;51.404;7.232;2023-07-20T02:44:57;15.60;1.00
2973;DHT22;1496;51.404;7.232;2023-07-20T02:47:23;15.60;1.00
2973;DHT22;1496;51.404;7.232;2023-07-20T02:49:49;15.70;1.00
2973;DHT22;1496;51.404;7.232;2023-07-20T02:52:15;15.70;57.60
2973;DHT22;1496;51.404;7.232;2023-07-20T02:54:40;15.60;1.00
2973;DHT22;1496;51.404;7.232;2023-07-20T02:57:06;15.60;99.90
2973;DHT22;1496;51.404;7.232;2023-07-20T02:59:32;15.50;99.90
2973;DHT22;1496;51.404;7.232;2023-07-20T03:01:57;15.50;99.90
2973;DHT22;1496;51.404;7.232;2023-07-20T03:04:26;15.50;99.90
2973;DHT22;1496;51.404;7.232;2023-07-20T03:06:52;15.50;99.90
2973;DHT22;1496;51.404;7.232;2023-07-20T03:09:18;15.50;99.90
2973;DHT22;1496;51.404;7.232;2023-07-20T03:11:44;15.50;99.90
2973;DHT22;1496;51.404;7.232;2023-07-20T03:14:11;15.50;99.90
2973;DHT22;1496;51.404;7.232;2023-07-20T03:16:37;15.50;99.90
2973;DHT22;1496;51.404;7.232;2023-07-20T03:19:02;15.50;99.90
2973;DHT22;1496;51.404;7.232;2023-07-20T03:21:29;15.60;99.90
2973;DHT22;1496;51.404;7.232;2023-07-20T03:23:55;15.70;99.90
2973;DHT22;1496;51.404;7.232;2023-07-20T03:26:20;15.70;99.90
2973;DHT22;1496;51.404;7.232;2023-07-20T03:28:46;15.70;99.90
2973;DHT22;1496;51.404;7.232;2023-07-20T03:31:12;15.60;99.90
2973;DHT22;1496;51.404;7.232;2023-07-20T03:33:39;15.60;99.90
2973;DHT22;1496;51.404;7.232;2023-07-20T03:36:05;15.60;99.90
2973;DHT22;1496;51.404;7.232;2023-07-20T03:38:30;15.60;99.90
2973;DHT22;1496;51.404;7.232;2023-07-20T03:40:58;15.60;99.90
2973;DHT22;1496;51.404;7.232;2023-07-20T03:43:25;15.60;99.90
2973;DHT22;1496;51.404;7.232;2023-07-20T03:45:52;15.60;99.90
2973;DHT22;1496;51.404;7.232;2023-07-20T03:48:19;15.50;99.90
2973;DHT22;1496;51.404;7.232;2023-07-20T03:50:46;15.50;99.90
2973;DHT22;1496;51.404;7.232;2023-07-20T03:53:14;15.50;99.90
2973;DHT22;1496;51.404;7.232;2023-07-20T03:55:41;15.50;99.90
2973;DHT22;1496;51.404;7.232;2023-07-20T03:58:07;15.50;99.90
2973;DHT22;1496;51.404;7.232;2023-07-20T04:00:34;15.50;99.90
2973;DHT22;1496;51.404;7.232;2023-07-20T04:03:00;15.40;99.90
2973;DHT22;1496;51.404;7.232;2023-07-20T04:05:26;15.50;99.90
2973;DHT22;1496;51.404;7.232;2023-07-20T04:07:52;15.50;99.90
2973;DHT22;1496;51.404;7.232;2023-07-20T04:10:18;15.40;99.90
2973;DHT22;1496;51.404;7.232;2023-07-20T04:12:47;15.50;99.90
2973;DHT22;1496;51.404;7.232;2023-07-20T04:15:16;15.50;99.90
2973;DHT22;1496;51.404;7.232;2023-07-20T04:17:41;15.50;99.90
2973;DHT22;1496;51.404;7.232;2023-07-20T04:20:08;15.50;99.90
2973;DHT22;1496;51.404;7.232;2023-07-20T04:22:34;15.60;99.90
2973;DHT22;1496;51.404;7.232;2023-07-20T04:25:00;15.70;99.90
2973;DHT22;1496;51.404;7.232;2023-07-20T04:27:26;15.70;99.90
2973;DHT22;1496;51.404;7.232;2023-07-20T04:29:52;15.70;99.90
2973;DHT22;1496;51.404;7.232;2023-07-20T04:32:18;15.80;99.90
2973;DHT22;1496;51.404;7.232;2023-07-20T04:34:44;15.90;99.90
2973;DHT22;1496;51.404;7.232;2023-07-20T04:37:09;15.90;99.90
2973;DHT22;1496;51.404;7.232;2023-07-20T04:39:35;15.90;99.90
2973;DHT22;1496;51.404;7.232;2023-07-20T04:42:05;15.80;99.90
2973;DHT22;1496;51.404;7.232;2023-07-20T04:44:31;15.60;99.90
2973;DHT22;1496;51.404;7.232;2023-07-20T04:46:57;15.40;99.90
2973;DHT22;1496;51.404;7.232;2023-07-20T04:49:23;15.40;99.90
2973;DHT22;1496;51.404;7.232;2023-07-20T04:51:48;15.50;99.90
2973;DHT22;1496;51.404;7.232;2023-07-20T04:54:16;15.60;99.90
2973;DHT22;1496;51.404;7.232;2023-07-20T04:56:42;15.60;99.90
2973;DHT22;1496;51.404;7.232;2023-07-20T04:59:10;15.80;99.90
2973;DHT22;1496;51.404;7.232;2023-07-20T05:01:35;15.80;99.90
2973;DHT22;1496;51.404;7.232;2023-07-20T05:04:01;15.80;99.90
2973;DHT22;1496;51.404;7.232;2023-07-20T05:06:27;15.80;99.90
2973;DHT22;1496;51.404;7.232;2023-07-20T05:08:53;15.80;99.90
2973;DHT22;1496;51.404;7.232;2023-07-20T05:11:19;15.70;99.90
2973;DHT22;1496;51.404;7.232;2023-07-20T05:13:45;15.80;99.90
2973;DHT22;1496;51.404;7.232;2023-07-20T05:16:11;15.90;99.90
2973;DHT22;1496;51.404;7.232;2023-07-20T05:18:37;15.80;99.90
2973;DHT22;1496;51.404;7.232;2023-07-20T05:21:03;15.90;99.90
2973;DHT22;1496;51.404;7.232;2023-07-20T05:23:28;16.10;99.90
2973;DHT22;1496;51.404;7.232;2023-07-20T05:26:00;16.10;99.90
2973;DHT22;1496;51.404;7.232;2023-07-20T05:28:26;16.00;99.90
2973;DHT22;1496;51.404;7.232;2023-07-20T05:30:52;15.90;99.90
2973;DHT22;1496;51.404;7.232;2023-07-20T05:33:19;15.90;99.90
2973;DHT22;1496;51.404;7.232;2023-07-20T05:35:45;16.00;99.90
2973;DHT22;1496;51.404;7.232;2023-07-20T05:38:11;15.90;99.90
2973;DHT22;1496;51.404;7.232;2023-07-20T05:40:41;15.90;99.90
2973;DHT22;1496;51.404;7.232;2023-07-20T05:43:07;15.90;99.90
2973;DHT22;1496;51.404;7.232;2023-07-20T05:45:33;15.80;99.90
2973;DHT22;1496;51.404;7.232;2023-07-20T05:47:59;15.70;99.90
2973;DHT22;1496;51.404;7.232;2023-07-20T05:50:24;15.60;99.90
2973;DHT22;1496;51.404;7.232;2023-07-20T05:52:52;15.60;99.90
2973;DHT22;1496;51.404;7.232;2023-07-20T05:55:18;15.80;99.90
2973;DHT22;1496;51.404;7.232;2023-07-20T05:57:44;15.70;99.90
2973;DHT22;1496;51.404;7.232;2023-07-20T06:00:11;15.80;99.90
2973;DHT22;1496;51.404;7.232;2023-07-20T06:02:38;15.80;99.90
2973;DHT22;1496;51.404;7.232;2023-07-20T06:05:05;15.80;99.90
2973;DHT22;1496;51.404;7.232;2023-07-20T06:07:31;15.80;99.90
2973;DHT22;1496;51.404;7.232;2023-07-20T06:10:00;15.80;99.90
2973;DHT22;1496;51.404;7.232;2023-07-20T06:12:26;15.70;99.90
2973;DHT22;1496;51.404;7.232;2023-07-20T06:14:51;15.60;99.90
2973;DHT22;1496;51.404;7.232;2023-07-20T06:17:20;15.80;99.90
2973;DHT22;1496;51.404;7.232;2023-07-20T06:19:46;15.80;99.90
2973;DHT22;1496;51.404;7.232;2023-07-20T06:22:12;15.80;99.90
2973;DHT22;1496;51.404;7.232;2023-07-20T06:24:37;15.90;99.90
2973;DHT22;1496;51.404;7.232;2023-07-20T06:27:04;16.00;99.90
2973;DHT22;1496;51.404;7.232;2023-07-20T06:29:31;16.10;99.90
2973;DHT22;1496;51.404;7.232;2023-07-20T06:31:56;16.10;99.90
2973;DHT22;1496;51.404;7.232;2023-07-20T06:34:22;16.10;99.90
2973;DHT22;1496;51.404;7.232;2023-07-20T06:36:48;16.20;99.90
2973;DHT22;1496;51.404;7.232;2023-07-20T06:39:14;16.20;99.90
2973;DHT22;1496;51.404;7.232;2023-07-20T06:41:40;16.30;99.90
2973;DHT22;1496;51.404;7.232;2023-07-20T06:44:05;16.20;99.90
2973;DHT22;1496;51.404;7.232;2023-07-20T06:46:31;16.10;99.90
2973;DHT22;1496;51.404;7.232;2023-07-20T06:48:59;15.90;99.90
2973;DHT22;1496;51.404;7.232;2023-07-20T06:51:25;15.70;99.90
2973;DHT22;1496;51.404;7.232;2023-07-20T06:53:50;15.90;99.90
2973;DHT22;1496;51.404;7.232;2023-07-20T06:56:16;16.20;99.90
2973;DHT22;1496;51.404;7.232;2023-07-20T06:58:42;16.20;99.90
2973;DHT22;1496;51.404;7.232;2023-07-20T07:01:11;16.30;99.90
2973;DHT22;1496;51.404;7.232;2023-07-20T07:03:37;16.50;99.90
2973;DHT22;1496;51.404;7.232;2023-07-20T07:06:02;16.90;99.90
2973;DHT22;1496;51.404;7.232;2023-07-20T07:08:28;17.10;99.90
2973;DHT22;1496;51.404;7.232;2023-07-20T07:10:55;17.30;1.00
2973;DHT22;1496;51.404;7.232;2023-07-20T07:13:20;17.50;71.60
2973;DHT22;1496;51.404;7.232;2023-07-20T07:15:46;17.50;99.90
2973;DHT22;1496;51.404;7.232;2023-07-20T07:18:12;17.60;1.00
2973;DHT22;1496;51.404;7.232;2023-07-20T07:20:37;17.60;1.00
2973;DHT22;1496;51.404;7.232;2023-07-20T07:23:03;17.40;1.00
2973;DHT22;1496;51.404;7.232;2023-07-20T07:25:29;17.10;1.00
2973;DHT22;1496;51.404;7.232;2023-07-20T07:27:55;17.20;1.00
2973;DHT22;1496;51.404;7.232;2023-07-20T07:30:21;16.70;1.00
2973;DHT22;1496;51.404;7.232;2023-07-20T07:32:47;16.70;1.00
2973;DHT22;1496;51.404;7.232;2023-07-20T07:35:13;16.90;1.00
2973;DHT22;1496;51.404;7.232;2023-07-20T07:37:39;17.00;1.00
2973;DHT22;1496;51.404;7.232;2023-07-20T07:40:07;17.10;1.00
2973;DHT22;1496;51.404;7.232;2023-07-20T07:42:33;17.30;1.00
2973;DHT22;1496;51.404;7.232;2023-07-20T07:44:59;17.60;1.00
2973;DHT22;1496;51.404;7.232;2023-07-20T07:47:25;17.80;1.00
2973;DHT22;1496;51.404;7.232;2023-07-20T07:49:51;17.80;1.00
2973;DHT22;1496;51.404;7.232;2023-07-20T07:52:17;17.90;1.00
2973;DHT22;1496;51.404;7.232;2023-07-20T07:54:42;18.00;1.00
2973;DHT22;1496;51.404;7.232;2023-07-20T07:57:08;18.20;1.00
2973;DHT22;1496;51.404;7.232;2023-07-20T07:59:34;18.20;1.00
2973;DHT22;1496;51.404;7.232;2023-07-20T08:02:04;18.10;1.00
2973;DHT22;1496;51.404;7.232;2023-07-20T08:04:30;18.00;1.00
2973;DHT22;1496;51.404;7.232;2023-07-20T08:06:56;18.00;1.00
2973;DHT22;1496;51.404;7.232;2023-07-20T08:09:21;18.10;1.00
2973;DHT22;1496;51.404;7.232;2023-07-20T08:11:47;17.90;1.00
2973;DHT22;1496;51.404;7.232;2023-07-20T08:14:14;17.70;1.00
2973;DHT22;1496;51.404;7.232;2023-07-20T08:16:40;17.30;1.00
2973;DHT22;1496;51.404;7.232;2023-07-20T08:19:06;17.30;1.00
2973;DHT22;1496;51.404;7.232;2023-07-20T08:21:32;17.50;1.00
2973;DHT22;1496;51.404;7.232;2023-07-20T08:23:57;17.70;1.00
2973;DHT22;1496;51.404;7.232;2023-07-20T08:26:23;18.00;1.00
2973;DHT22;1496;51.404;7.232;2023-07-20T08:28:49;18.20;1.00
2973;DHT22;1496;51.404;7.232;2023-07-20T08:31:15;18.40;1.00
2973;DHT22;1496;51.404;7.232;2023-07-20T08:33:41;18.90;1.00
2973;DHT22;1496;51.404;7.232;2023-07-20T08:36:06;19.00;1.00
2973;DHT22;1496;51.404;7.232;2023-07-20T08:38:33;18.80;1.00
2973;DHT22;1496;51.404;7.232;2023-07-20T08:41:01;18.40;1.00
2973;DHT22;1496;51.404;7.232;2023-07-20T08:43:27;18.40;1.00
2973;DHT22;1496;51.404;7.232;2023-07-20T08:45:55;18.60;1.00
2973;DHT22;1496;51.404;7.232;2023-07-20T08:48:24;18.60;1.00
2973;DHT22;1496;51.404;7.232;2023-07-20T08:51:03;18.50;1.00
2973;DHT22;1496;51.404;7.232;2023-07-20T08:53:30;18.80;1.00
2973;DHT22;1496;51.404;7.232;2023-07-20T08:55:58;18.90;1.00
2973;DHT22;1496;51.404;7.232;2023-07-20T08:58:25;19.10;1.00
2973;DHT22;1496;51.404;7.232;2023-07-20T09:00:52;19.20;1.00
2973;DHT22;1496;51.404;7.232;2023-07-20T09:03:21;19.30;1.00
2973;DHT22;1496;51.404;7.232;2023-07-20T09:05:47;19.30;1.00
2973;DHT22;1496;51.404;7.232;2023-07-20T09:08:12;19.20;1.00
2973;DHT22;1496;51.404;7.232;2023-07-20T09:10:38;19.30;1.00
2973;DHT22;1496;51.404;7.232;2023-07-20T09:13:04;19.50;1.00
2973;DHT22;1496;51.404;7.232;2023-07-20T09:15:30;19.80;1.00
2973;DHT22;1496;51.404;7.232;2023-07-20T09:17:56;19.90;1.00
2973;DHT22;1496;51.404;7.232;2023-07-20T09:20:21;19.80;1.00
2973;DHT22;1496;51.404;7.232;2023-07-20T09:22:47;19.70;1.00
2973;DHT22;1496;51.404;7.232;2023-07-20T09:25:17;19.50;1.00
2973;DHT22;1496;51.404;7.232;2023-07-20T09:27:45;19.20;1.00
2973;DHT22;1496;51.404;7.232;2023-07-20T09:30:11;18.90;1.00
2973;DHT22;1496;51.404;7.232;2023-07-20T09:32:46;18.80;1.00
2973;DHT22;1496;51.404;7.232;2023-07-20T09:35:22;18.50;1.00
2973;DHT22;1496;51.404;7.232;2023-07-20T09:37:58;18.20;1.00
2973;DHT22;1496;51.404;7.232;2023-07-20T09:40:26;18.40;1.00
2973;DHT22;1496;51.404;7.232;2023-07-20T09:42:53;18.90;1.00
2973;DHT22;1496;51.404;7.232;2023-07-20T09:45:34;19.40;1.00
2973;DHT22;1496;51.404;7.232;2023-07-20T09:48:05;19.60;1.00
2973;DHT22;1496;51.404;7.232;2023-07-20T09:50:33;19.60;1.00
2973;DHT22;1496;51.404;7.232;2023-07-20T09:53:01;19.60;1.00
2973;DHT22;1496;51.404;7.232;2023-07-20T09:55:30;19.70;1.00
2973;DHT22;1496;51.404;7.232;2023-07-20T09:57:56;19.90;1.00
2973;DHT22;1496;51.404;7.232;2023-07-20T10:00:22;19.90;1.00
2973;DHT22;1496;51.404;7.232;2023-07-20T10:02:49;19.70;1.00
2973;DHT22;1496;51.404;7.232;2023-07-20T10:05:17;19.50;1.00
2973;DHT22;1496;51.404;7.232;2023-07-20T10:07:50;19.10;1.00
2973;DHT22;1496;51.404;7.232;2023-07-20T10:10:17;19.00;1.00
2973;DHT22;1496;51.404;7.232;2023-07-20T10:12:46;19.20;1.00
2973;DHT22;1496;51.404;7.232;2023-07-20T10:15:24;19.50;1.00
2973;DHT22;1496;51.404;7.232;2023-07-20T10:17:59;20.00;1.00
2973;DHT22;1496;51.404;7.232;2023-07-20T10:20:28;20.40;1.00
2973;DHT22;1496;51.404;7.232;2023-07-20T10:22:58;20.50;1.00
2973;DHT22;1496;51.404;7.232;2023-07-20T10:25:24;20.20;1.00
2973;DHT22;1496;51.404;7.232;2023-07-20T10:27:50;19.80;1.00
2973;DHT22;1496;51.404;7.232;2023-07-20T10:30:17;19.60;1.00
2973;DHT22;1496;51.404;7.232;2023-07-20T10:32:44;19.40;1.00
2973;DHT22;1496;51.404;7.232;2023-07-20T10:35:15;19.70;1.00
2973;DHT22;1496;51.404;7.232;2023-07-20T10:37:54;20.20;1.00
2973;DHT22;1496;51.404;7.232;2023-07-20T10:40:33;20.50;1.00
2973;DHT22;1496;51.404;7.232;2023-07-20T10:43:09;20.90;1.00
2973;DHT22;1496;51.404;7.232;2023-07-20T10:45:44;20.90;1.00
2973;DHT22;1496;51.404;7.232;2023-07-20T10:48:18;20.50;1.00
2973;DHT22;1496;51.404;7.232;2023-07-20T10:50:45;20.20;1.00
2973;DHT22;1496;51.404;7.232;2023-07-20T10:53:16;20.30;1.00
2973;DHT22;1496;51.404;7.232;2023-07-20T10:55:43;20.40;1.00
2973;DHT22;1496;51.404;7.232;2023-07-20T10:58:16;20.70;1.00
2973;DHT22;1496;51.404;7.232;2023-07-20T11:01:03;20.80;1.00
2973;DHT22;1496;51.404;7.232;2023-07-20T11:03:34;20.80;1.00
2973;DHT22;1496;51.404;7.232;2023-07-20T11:09:07;21.10;1.00
2973;DHT22;1496;51.404;7.232;2023-07-20T11:11:38;20.80;1.00
2973;DHT22;1496;51.404;7.232;2023-07-20T11:14:06;20.50;1.00
2973;DHT22;1496;51.404;7.232;2023-07-20T11:16:40;20.90;1.00
2973;DHT22;1496;51.404;7.232;2023-07-20T11:19:13;21.20;1.00
2973;DHT22;1496;51.404;7.232;2023-07-20T11:21:41;21.50;1.00
2973;DHT22;1496;51.404;7.232;2023-07-20T11:24:08;21.70;1.00
2973;DHT22;1496;51.404;7.232;2023-07-20T11:27:01;21.80;1.00
2973;DHT22;1496;51.404;7.232;2023-07-20T11:29:27;22.00;1.00
2973;DHT22;1496;51.404;7.232;2023-07-20T11:31:53;22.20;1.00
2973;DHT22;1496;51.404;7.232;2023-07-20T11:34:19;22.20;1.00
2973;DHT22;1496;51.404;7.232;2023-07-20T11:36:50;22.20;1.00
2973;DHT22;1496;51.404;7.232;2023-07-20T11:39:17;22.30;1.00
2973;DHT22;1496;51.404;7.232;2023-07-20T11:41:47;22.40;1.00
2973;DHT22;1496;51.404;7.232;2023-07-20T11:44:27;22.10;1.00
2973;DHT22;1496;51.404;7.232;2023-07-20T11:49:36;21.10;1.00
2973;DHT22;1496;51.404;7.232;2023-07-20T11:52:06;21.00;1.00
2973;DHT22;1496;51.404;7.232;2023-07-20T11:54:34;20.90;1.00
2973;DHT22;1496;51.404;7.232;2023-07-20T11:57:03;21.20;1.00
2973;DHT22;1496;51.404;7.232;2023-07-20T11:59:29;21.40;1.00
2973;DHT22;1496;51.404;7.232;2023-07-20T12:01:54;21.70;1.00
2973;DHT22;1496;51.404;7.232;2023-07-20T12:04:23;21.90;99.90
2973;DHT22;1496;51.404;7.232;2023-07-20T12:06:48;22.10;99.90
2973;DHT22;1496;51.404;7.232;2023-07-20T12:09:16;22.30;1.00
2973;DHT22;1496;51.404;7.232;2023-07-20T12:11:43;22.40;99.90
2973;DHT22;1496;51.404;7.232;2023-07-20T12:14:09;22.20;99.90
2973;DHT22;1496;51.404;7.232;2023-07-20T12:16:36;22.30;99.90
2973;DHT22;1496;51.404;7.232;2023-07-20T12:19:10;22.50;99.90
2973;DHT22;1496;51.404;7.232;2023-07-20T12:21:39;22.60;99.90
2973;DHT22;1496;51.404;7.232;2023-07-20T12:24:06;22.90;99.90
2973;DHT22;1496;51.404;7.232;2023-07-20T12:26:33;22.60;99.90
2973;DHT22;1496;51.404;7.232;2023-07-20T12:28:59;22.30;99.90
2973;DHT22;1496;51.404;7.232;2023-07-20T12:31:26;22.30;99.90
2973;DHT22;1496;51.404;7.232;2023-07-20T12:33:52;22.30;99.90
2973;DHT22;1496;51.404;7.232;2023-07-20T12:36:18;22.20;99.90
2973;DHT22;1496;51.404;7.232;2023-07-20T12:38:45;22.10;99.90
2973;DHT22;1496;51.404;7.232;2023-07-20T12:41:12;22.20;99.90
2973;DHT22;1496;51.404;7.232;2023-07-20T12:43:41;22.40;99.90
2973;DHT22;1496;51.404;7.232;2023-07-20T12:46:07;22.40;99.90
2973;DHT22;1496;51.404;7.232;2023-07-20T12:48:33;22.60;99.90
2973;DHT22;1496;51.404;7.232;2023-07-20T12:50:59;22.80;99.90
2973;DHT22;1496;51.404;7.232;2023-07-20T12:53:24;23.00;99.90
2973;DHT22;1496;51.404;7.232;2023-07-20T12:55:50;22.80;99.90
2973;DHT22;1496;51.404;7.232;2023-07-20T12:58:15;23.00;99.90
2973;DHT22;1496;51.404;7.232;2023-07-20T13:00:41;23.10;99.90
2973;DHT22;1496;51.404;7.232;2023-07-20T13:03:07;23.10;99.90
2973;DHT22;1496;51.404;7.232;2023-07-20T13:05:34;23.00;99.90
2973;DHT22;1496;51.404;7.232;2023-07-20T13:08:00;22.90;99.90
2973;DHT22;1496;51.404;7.232;2023-07-20T13:10:27;22.80;99.90
2973;DHT22;1496;51.404;7.232;2023-07-20T13:12:53;22.40;99.90
2973;DHT22;1496;51.404;7.232;2023-07-20T13:15:19;22.30;99.90
2973;DHT22;1496;51.404;7.232;2023-07-20T13:17:44;22.00;99.90
2973;DHT22;1496;51.404;7.232;2023-07-20T13:20:11;21.70;99.90
2973;DHT22;1496;51.404;7.232;2023-07-20T13:22:40;21.40;99.90
2973;DHT22;1496;51.404;7.232;2023-07-20T13:25:07;21.30;99.90
2973;DHT22;1496;51.404;7.232;2023-07-20T13:27:33;21.10;99.90
2973;DHT22;1496;51.404;7.232;2023-07-20T13:30:00;21.10;99.90
2973;DHT22;1496;51.404;7.232;2023-07-20T13:32:26;21.10;99.90
2973;DHT22;1496;51.404;7.232;2023-07-20T13:34:52;21.00;99.90
2973;DHT22;1496;51.404;7.232;2023-07-20T13:37:18;20.90;99.90
2973;DHT22;1496;51.404;7.232;2023-07-20T13:39:44;20.90;99.90
2973;DHT22;1496;51.404;7.232;2023-07-20T13:42:10;20.80;99.90
2973;DHT22;1496;51.404;7.232;2023-07-20T13:44:37;20.80;99.90
2973;DHT22;1496;51.404;7.232;2023-07-20T13:47:03;20.80;99.90
2973;DHT22;1496;51.404;7.232;2023-07-20T13:49:31;20.80;99.90
2973;DHT22;1496;51.404;7.232;2023-07-20T13:51:56;20.70;99.90
2973;DHT22;1496;51.404;7.232;2023-07-20T13:54:23;20.60;99.90
2973;DHT22;1496;51.404;7.232;2023-07-20T13:56:49;20.70;99.90
2973;DHT22;1496;51.404;7.232;2023-07-20T13:59:14;20.70;99.90
2973;DHT22;1496;51.404;7.232;2023-07-20T14:01:40;20.70;99.90
2973;DHT22;1496;51.404;7.232;2023-07-20T14:04:06;20.80;99.90
2973;DHT22;1496;51.404;7.232;2023-07-20T14:06:33;20.90;99.90
2973;DHT22;1496;51.404;7.232;2023-07-20T14:08:59;21.00;99.90
2973;DHT22;1496;51.404;7.232;2023-07-20T14:11:25;21.00;99.90
2973;DHT22;1496;51.404;7.232;2023-07-20T14:13:51;21.10;99.90
2973;DHT22;1496;51.404;7.232;2023-07-20T14:16:21;21.00;99.90
2973;DHT22;1496;51.404;7.232;2023-07-20T14:18:48;21.00;99.90
2973;DHT22;1496;51.404;7.232;2023-07-20T14:21:14;21.10;99.90
2973;DHT22;1496;51.404;7.232;2023-07-20T14:23:40;21.00;99.90
2973;DHT22;1496;51.404;7.232;2023-07-20T14:26:06;21.00;99.90
2973;DHT22;1496;51.404;7.232;2023-07-20T14:28:33;21.00;99.90
2973;DHT22;1496;51.404;7.232;2023-07-20T14:30:58;21.10;99.90
2973;DHT22;1496;51.404;7.232;2023-07-20T14:33:24;21.20;99.90
2973;DHT22;1496;51.404;7.232;2023-07-20T14:35:50;21.20;99.90
2973;DHT22;1496;51.404;7.232;2023-07-20T14:38:15;21.20;99.90
2973;DHT22;1496;51.404;7.232;2023-07-20T14:40:41;21.20;99.90
2973;DHT22;1496;51.404;7.232;2023-07-20T14:43:07;21.30;99.90
2973;DHT22;1496;51.404;7.232;2023-07-20T14:45:32;21.20;99.90
2973;DHT22;1496;51.404;7.232;2023-07-20T14:47:58;21.20;99.90
2973;DHT22;1496;51.404;7.232;2023-07-20T14:50:24;21.20;99.90
2973;DHT22;1496;51.404;7.232;2023-07-20T14:52:50;21.20;99.90
2973;DHT22;1496;51.404;7.232;2023-07-20T14:55:16;21.10;99.90
2973;DHT22;1496;51.404;7.232;2023-07-20T14:57:42;21.10;99.90
2973;DHT22;1496;51.404;7.232;2023-07-20T15:00:09;21.10;99.90
2973;DHT22;1496;51.404;7.232;2023-07-20T15:02:37;21.20;99.90
2973;DHT22;1496;51.404;7.232;2023-07-20T15:05:06;21.20;99.90
2973;DHT22;1496;51.404;7.232;2023-07-20T15:07:32;21.20;99.90
2973;DHT22;1496;51.404;7.232;2023-07-20T15:09:58;21.20;99.90
2973;DHT22;1496;51.404;7.232;2023-07-20T15:12:24;21.30;99.90
2973;DHT22;1496;51.404;7.232;2023-07-20T15:15:08;21.30;99.90
2973;DHT22;1496;51.404;7.232;2023-07-20T15:17:35;21.30;99.90
2973;DHT22;1496;51.404;7.232;2023-07-20T15:20:02;21.30;99.90
2973;DHT22;1496;51.404;7.232;2023-07-20T15:22:31;21.30;99.90
2973;DHT22;1496;51.404;7.232;2023-07-20T15:24:57;21.30;99.90
2973;DHT22;1496;51.404;7.232;2023-07-20T15:27:23;21.40;99.90
2973;DHT22;1496;51.404;7.232;2023-07-20T15:29:49;21.50;99.90
2973;DHT22;1496;51.404;7.232;2023-07-20T15:32:17;21.50;99.90
2973;DHT22;1496;51.404;7.232;2023-07-20T15:34:43;21.70;99.90
2973;DHT22;1496;51.404;7.232;2023-07-20T15:37:12;21.70;99.90
2973;DHT22;1496;51.404;7.232;2023-07-20T15:39:38;21.70;99.90
2973;DHT22;1496;51.404;7.232;2023-07-20T15:42:04;21.70;99.90
2973;DHT22;1496;51.404;7.232;2023-07-20T15:44:30;21.60;99.90
2973;DHT22;1496;51.404;7.232;2023-07-20T15:46:56;21.50;99.90
2973;DHT22;1496;51.404;7.232;2023-07-20T15:49:22;21.50;99.90
2973;DHT22;1496;51.404;7.232;2023-07-20T15:51:50;21.40;99.90
2973;DHT22;1496;51.404;7.232;2023-07-20T15:54:15;21.40;99.90
2973;DHT22;1496;51.404;7.232;2023-07-20T15:56:42;21.50;99.90
2973;DHT22;1496;51.404;7.232;2023-07-20T15:59:10;21.40;99.90
2973;DHT22;1496;51.404;7.232;2023-07-20T16:01:36;21.30;99.90
2973;DHT22;1496;51.404;7.232;2023-07-20T16:04:02;21.30;99.90
2973;DHT22;1496;51.404;7.232;2023-07-20T16:06:28;21.30;99.90
2973;DHT22;1496;51.404;7.232;2023-07-20T16:08:54;21.30;99.90
2973;DHT22;1496;51.404;7.232;2023-07-20T16:11:20;21.40;99.90
2973;DHT22;1496;51.404;7.232;2023-07-20T16:13:52;21.30;99.90
2973;DHT22;1496;51.404;7.232;2023-07-20T16:16:18;21.40;99.90
2973;DHT22;1496;51.404;7.232;2023-07-20T16:18:44;21.40;99.90
2973;DHT22;1496;51.404;7.232;2023-07-20T16:21:10;21.40;99.90